TimeCST,TemperatureF,Dew PointF,Humidity,Sea Level PressureIn,VisibilityMPH,Wind Direction,Wind SpeedMPH,Gust SpeedMPH,PrecipitationIn,Events,Conditions,WindDirDegrees,DateUTC
12:15 AM,25.0,17.4,73,30.38,10.0,NNW,9.2,17.3,N/A,,Overcast,340,2013-03-06 06:15:00
12:35 AM,24.8,16.7,71,30.37,10.0,North,10.4,18.4,N/A,,Overcast,350,2013-03-06 06:35:00
12:55 AM,24.6,17.2,74,30.37,10.0,NNW,15.0,19.6,N/A,,Overcast,340,2013-03-06 06:55:00
1:15 AM,24.4,16.9,73,30.38,10.0,NNW,11.5,-,N/A,,Overcast,340,2013-03-06 07:15:00
1:35 AM,24.4,17.2,74,30.39,10.0,NNW,11.5,-,N/A,,Overcast,340,2013-03-06 07:35:00
1:55 AM,24.1,16.7,73,30.39,10.0,NNW,11.5,-,N/A,,Overcast,330,2013-03-06 07:55:00
2:15 AM,23.9,17.1,75,30.40,10.0,NNW,10.4,-,N/A,,Overcast,340,2013-03-06 08:15:00
2:35 AM,23.9,16.7,74,30.39,10.0,NNW,9.2,-,N/A,,Overcast,330,2013-03-06 08:35:00
2:55 AM,23.9,17.1,75,30.39,10.0,NNW,10.4,-,N/A,,Overcast,340,2013-03-06 08:55:00
3:15 AM,23.5,16.7,75,30.38,10.0,North,10.4,-,N/A,,Overcast,360,2013-03-06 09:15:00
3:35 AM,23.5,16.7,75,30.39,10.0,NNW,8.1,-,N/A,,Overcast,340,2013-03-06 09:35:00
3:55 AM,23.7,17.2,76,30.39,10.0,NNW,10.4,-,N/A,,Overcast,330,2013-03-06 09:55:00
4:15 AM,23.4,16.5,75,30.39,10.0,NNW,8.1,-,N/A,,Overcast,340,2013-03-06 10:15:00
4:35 AM,23.5,17.1,76,30.39,10.0,NNW,6.9,-,N/A,,Overcast,340,2013-03-06 10:35:00
4:55 AM,23.4,17.1,77,30.40,10.0,NNW,4.6,-,N/A,,Overcast,340,2013-03-06 10:55:00
5:15 AM,23.5,17.4,77,30.41,10.0,NNW,4.6,-,N/A,,Overcast,340,2013-03-06 11:15:00
5:35 AM,23.4,17.4,78,30.41,10.0,North,5.8,-,N/A,,Overcast,10,2013-03-06 11:35:00
5:55 AM,23.0,17.1,78,30.41,10.0,North,4.6,-,N/A,,Overcast,10,2013-03-06 11:55:00
6:15 AM,22.8,16.9,78,30.41,10.0,North,5.8,-,N/A,,Overcast,360,2013-03-06 12:15:00
6:35 AM,22.6,16.7,78,30.41,10.0,North,5.8,-,N/A,,Overcast,350,2013-03-06 12:35:00
6:55 AM,22.5,16.7,79,30.41,10.0,North,4.6,-,N/A,,Overcast,350,2013-03-06 12:55:00
7:15 AM,22.3,17.2,81,30.41,10.0,NNW,3.5,-,N/A,,Overcast,330,2013-03-06 13:15:00
7:35 AM,22.8,17.4,80,30.41,10.0,Calm,Calm,-,N/A,,Overcast,0,2013-03-06 13:35:00
7:55 AM,23.4,17.6,79,30.41,10.0,Calm,Calm,-,N/A,,Mostly Cloudy,0,2013-03-06 13:55:00
8:15 AM,23.9,17.4,76,30.42,10.0,Calm,Calm,-,N/A,,Mostly Cloudy,0,2013-03-06 14:15:00
8:35 AM,25.2,17.6,73,30.41,10.0,North,3.5,-,N/A,,Scattered Clouds,10,2013-03-06 14:35:00
8:55 AM,25.5,17.6,72,30.42,10.0,Calm,Calm,-,N/A,,Scattered Clouds,0,2013-03-06 14:55:00
9:15 AM,26.8,17.8,69,30.41,10.0,ENE,3.5,-,N/A,,Scattered Clouds,60,2013-03-06 15:15:00
9:35 AM,27.5,17.8,67,30.42,10.0,NE,5.8,-,N/A,,Clear,50,2013-03-06 15:35:00
9:55 AM,27.3,17.8,67,30.41,10.0,Calm,Calm,-,N/A,,Scattered Clouds,0,2013-03-06 15:55:00
10:15 AM,28.8,18.1,65,30.41,10.0,ENE,5.8,-,N/A,,Scattered Clouds,60,2013-03-06 16:15:00
10:35 AM,30.0,18.7,63,30.41,10.0,ENE,5.8,-,N/A,,Scattered Clouds,70,2013-03-06 16:35:00
10:55 AM,31.1,18.5,60,30.40,10.0,Calm,Calm,-,N/A,,Clear,0,2013-03-06 16:55:00
11:15 AM,31.5,18.5,59,30.40,10.0,NE,4.6,-,N/A,,Clear,50,2013-03-06 17:15:00
11:35 AM,32.0,18.7,58,30.39,10.0,SE,3.5,-,N/A,,Clear,130,2013-03-06 17:35:00
11:55 AM,33.4,19.0,56,30.39,10.0,East,4.6,-,N/A,,Clear,80,2013-03-06 17:55:00
12:15 PM,33.4,19.8,57,30.39,10.0,ENE,3.5,-,N/A,,Clear,60,2013-03-06 18:15:00
12:35 PM,33.6,19.6,56,30.38,10.0,Calm,Calm,-,N/A,,Clear,0,2013-03-06 18:35:00
12:55 PM,34.7,19.9,55,30.38,10.0,SW,3.5,-,N/A,,Clear,230,2013-03-06 18:55:00
1:15 PM,34.7,19.6,54,30.37,10.0,Calm,Calm,-,N/A,,Clear,0,2013-03-06 19:15:00
1:35 PM,35.8,19.9,53,30.36,10.0,East,3.5,-,N/A,,Clear,100,2013-03-06 19:35:00
1:55 PM,37.0,19.9,50,30.34,10.0,Calm,Calm,-,N/A,,Clear,0,2013-03-06 19:55:00
2:15 PM,37.0,19.8,50,30.33,10.0,NE,3.5,-,N/A,,Clear,50,2013-03-06 20:15:00
2:35 PM,37.2,19.9,50,30.32,10.0,South,4.6,-,N/A,,Clear,170,2013-03-06 20:35:00
2:55 PM,37.8,19.6,48,30.31,10.0,East,4.6,-,N/A,,Clear,90,2013-03-06 20:55:00
3:15 PM,38.1,19.9,48,30.31,10.0,ESE,4.6,-,N/A,,Clear,110,2013-03-06 21:15:00
3:35 PM,38.5,20.8,49,30.30,10.0,South,5.8,-,N/A,,Clear,170,2013-03-06 21:35:00
3:55 PM,38.1,20.5,49,30.30,10.0,ESE,4.6,-,N/A,,Clear,120,2013-03-06 21:55:00
4:15 PM,38.8,21.7,50,30.29,10.0,SSE,4.6,-,N/A,,Clear,150,2013-03-06 22:15:00
4:35 PM,39.2,22.1,50,30.29,10.0,SE,4.6,-,N/A,,Clear,140,2013-03-06 22:35:00
4:55 PM,39.0,21.6,50,30.28,10.0,East,5.8,-,N/A,,Clear,100,2013-03-06 22:55:00
5:15 PM,38.7,21.4,50,30.28,10.0,East,8.1,-,N/A,,Clear,100,2013-03-06 23:15:00
5:35 PM,37.4,21.9,54,30.26,10.0,East,8.1,-,N/A,,Clear,100,2013-03-06 23:35:00
5:55 PM,36.1,22.5,58,30.25,10.0,East,8.1,-,N/A,,Clear,100,2013-03-06 23:55:00
6:15 PM,34.3,22.1,61,30.26,10.0,East,5.8,-,N/A,,Clear,100,2013-03-07 00:15:00
6:35 PM,32.9,22.8,66,30.26,10.0,East,6.9,-,N/A,,Clear,100,2013-03-07 00:35:00
6:55 PM,32.5,23.4,69,30.25,10.0,ESE,6.9,-,N/A,,Clear,110,2013-03-07 00:55:00
7:15 PM,33.1,22.3,65,30.25,10.0,ESE,8.1,-,N/A,,Clear,120,2013-03-07 01:15:00
7:35 PM,32.9,22.6,66,30.25,10.0,ESE,9.2,-,N/A,,Clear,110,2013-03-07 01:35:00
7:55 PM,32.2,22.8,68,30.25,10.0,ESE,9.2,-,N/A,,Clear,120,2013-03-07 01:55:00
8:15 PM,31.8,22.5,68,30.25,10.0,ESE,9.2,-,N/A,,Clear,120,2013-03-07 02:15:00
8:35 PM,31.5,22.1,68,30.26,10.0,ESE,8.1,-,N/A,,Clear,120,2013-03-07 02:35:00
8:55 PM,30.7,22.3,71,30.25,10.0,ESE,12.7,-,N/A,,Clear,120,2013-03-07 02:55:00
9:15 PM,30.2,22.3,72,30.25,10.0,ESE,12.7,-,N/A,,Clear,110,2013-03-07 03:15:00
9:35 PM,29.8,22.5,74,30.25,10.0,ESE,9.2,-,N/A,,Clear,120,2013-03-07 03:35:00
9:55 PM,29.3,22.5,76,30.25,10.0,ESE,11.5,16.1,N/A,,Clear,120,2013-03-07 03:55:00
10:15 PM,29.1,22.5,76,30.25,10.0,ESE,10.4,-,N/A,,Clear,120,2013-03-07 04:15:00
10:35 PM,28.6,22.3,77,30.25,10.0,ESE,10.4,-,N/A,,Clear,120,2013-03-07 04:35:00
10:55 PM,28.4,22.8,80,30.24,10.0,ESE,10.4,-,N/A,,Clear,120,2013-03-07 04:55:00
11:15 PM,28.0,22.5,80,30.25,10.0,ESE,8.1,-,N/A,,Clear,110,2013-03-07 05:15:00
11:35 PM,27.5,22.5,81,30.25,10.0,ESE,5.8,-,N/A,,Clear,120,2013-03-07 05:35:00
11:55 PM,27.3,22.5,82,30.26,10.0,ESE,8.1,-,N/A,,Clear,110,2013-03-07 05:55:00